createdAt,value
2023-03-05T00:02:01.473Z,100224.88
2023-03-05T00:04:31.377Z,100176.81
2023-03-05T00:07:01.303Z,100229.94
2023-03-05T00:09:30.461Z,100228.25
2023-03-05T00:12:00.206Z,100189.53
2023-03-05T00:14:30.030Z,100235.06
2023-03-05T00:16:57.793Z,100227.41
2023-03-05T00:19:27.376Z,100197.97
2023-03-05T00:21:57.259Z,100197.16
2023-03-05T00:24:24.993Z,100230.00
2023-03-05T00:26:56.456Z,100224.94
2023-03-05T00:29:29.570Z,100219.88
2023-03-05T00:32:01.456Z,100188.66
2023-03-05T00:34:31.710Z,100211.44
2023-03-05T00:36:59.520Z,100224.94
2023-03-05T00:39:29.456Z,100229.19
2023-03-05T00:42:00.335Z,100202.22
2023-03-05T00:44:28.055Z,100203.88
2023-03-05T00:46:57.804Z,100226.66
2023-03-05T00:49:27.829Z,100181.94
2023-03-05T00:51:55.556Z,100222.47
2023-03-05T00:54:25.371Z,100220.75
2023-03-05T00:56:57.398Z,100217.38
2023-03-05T00:59:28.445Z,100209.81
2023-03-05T01:01:58.400Z,100218.25
2023-03-05T01:04:26.176Z,100161.72
2023-03-05T01:06:55.891Z,100191.25
2023-03-05T01:09:25.271Z,100165.09
2023-03-05T01:11:53.087Z,100148.22
2023-03-05T01:14:23.981Z,100207.25
2023-03-05T01:16:55.056Z,100204.72
2023-03-05T01:19:22.866Z,100200.53
2023-03-05T01:21:52.548Z,100186.16
2023-03-05T01:24:20.363Z,100201.31
2023-03-05T01:26:49.355Z,100203.06
2023-03-05T01:29:18.970Z,100180.25
2023-03-05T01:31:49.129Z,100171.84
2023-03-05T01:34:23.286Z,100161.72
2023-03-05T01:36:53.182Z,100198.84
2023-03-05T01:39:21.299Z,100190.41
2023-03-05T01:41:50.876Z,100191.25
2023-03-05T01:44:29.192Z,100197.97
2023-03-05T01:46:59.434Z,100159.19
2023-03-05T01:49:33.616Z,100191.25
2023-03-05T01:52:10.876Z,100175.22
2023-03-05T01:54:41.458Z,100186.16
2023-03-05T01:57:15.414Z,100190.41
2023-03-05T01:59:49.568Z,100164.25
2023-03-05T02:02:20.251Z,100181.97
2023-03-05T02:04:54.414Z,100176.91
2023-03-05T02:07:24.633Z,100165.09
2023-03-05T02:09:52.608Z,100134.69
2023-03-05T02:12:20.472Z,100177.75
2023-03-05T02:14:53.359Z,100177.72
2023-03-05T02:17:21.759Z,100171.84
2023-03-05T02:19:53.887Z,100128.81
2023-03-05T02:22:27.636Z,100162.56
2023-03-05T02:24:55.399Z,100167.63
2023-03-05T02:27:36.682Z,100111.97
2023-03-05T02:30:05.015Z,100166.72
2023-03-05T02:32:32.977Z,100126.28
2023-03-05T02:35:02.655Z,100131.31
2023-03-05T02:37:33.766Z,100160.88
2023-03-05T02:40:01.995Z,100165.09
2023-03-05T02:42:32.821Z,100169.31
2023-03-05T02:45:03.200Z,100158.34
2023-03-05T02:47:30.764Z,100154.91
2023-03-05T02:50:00.728Z,100156.63
2023-03-05T02:52:34.336Z,100154.13
2023-03-05T02:55:02.192Z,100146.53
2023-03-05T02:57:30.030Z,100154.94
2023-03-05T03:00:00.013Z,100110.25
2023-03-05T03:02:29.719Z,100146.53
2023-03-05T03:04:57.487Z,100147.38
2023-03-05T03:07:27.477Z,100142.31
2023-03-05T03:09:58.494Z,100085.81
2023-03-05T03:12:26.241Z,100133.88
2023-03-05T03:14:56.179Z,100126.28
2023-03-05T03:17:25.744Z,100107.72
2023-03-05T03:19:53.507Z,100127.16
2023-03-05T03:22:23.397Z,100120.38
2023-03-05T03:24:51.502Z,100082.44
2023-03-05T03:27:20.581Z,100113.63
2023-03-05T03:29:50.570Z,100114.47
2023-03-05T03:32:20.289Z,100072.31
2023-03-05T03:34:48.452Z,100099.28
2023-03-05T03:37:18.415Z,100087.47
2023-03-05T03:39:50.169Z,100108.56
2023-03-05T03:42:18.371Z,100063.06
2023-03-05T03:44:48.074Z,100107.75
2023-03-05T03:47:20.245Z,100105.19
2023-03-05T03:49:48.118Z,100106.03
2023-03-05T03:52:15.922Z,100100.97
2023-03-05T03:54:47.714Z,100106.81
2023-03-05T03:57:15.481Z,100103.50
2023-03-05T03:59:52.526Z,100100.94
2023-03-05T04:02:20.277Z,100099.22
2023-03-05T04:04:48.330Z,100090.88
2023-03-05T04:07:20.082Z,100093.38
2023-03-05T04:09:49.983Z,100091.69
2023-03-05T04:12:18.644Z,100092.53
2023-03-05T04:14:50.490Z,100090.84
2023-03-05T04:17:20.388Z,100084.13
2023-03-05T04:19:48.146Z,100071.47
2023-03-05T04:22:19.689Z,100086.66
2023-03-05T04:24:52.046Z,100083.28
2023-03-05T04:27:19.786Z,100079.03
2023-03-05T04:29:50.888Z,100074.00
2023-03-05T04:32:23.285Z,100048.72
2023-03-05T04:34:51.177Z,100082.44
2023-03-05T04:37:20.860Z,100073.16
2023-03-05T04:39:52.901Z,100070.66
2023-03-05T04:42:21.198Z,100069.78
2023-03-05T04:44:53.004Z,100045.34
2023-03-05T04:47:22.955Z,100068.09
2023-03-05T04:49:50.700Z,100060.50
2023-03-05T04:52:20.547Z,100063.88
2023-03-05T04:54:52.394Z,100063.06
2023-03-05T04:57:20.162Z,100030.16
2023-03-05T04:59:56.476Z,100019.22
2023-03-05T05:02:24.346Z,100032.72
2023-03-05T05:04:54.337Z,100058.00
2023-03-05T05:07:24.358Z,100016.69
2023-03-05T05:09:54.556Z,100054.50
2023-03-05T05:12:22.326Z,100033.50
2023-03-05T05:14:53.555Z,100051.25
2023-03-05T05:17:23.149Z,100049.56
2023-03-05T05:19:51.060Z,100051.25
2023-03-05T05:22:20.969Z,100042.78
2023-03-05T05:24:50.579Z,100043.69
2023-03-05T05:27:18.425Z,100041.09
2023-03-05T05:29:50.302Z,100025.94
2023-03-05T05:32:24.811Z,100039.41
2023-03-05T05:34:55.618Z,100009.88
2023-03-05T05:37:25.697Z,100035.22
2023-03-05T05:39:55.839Z,100037.78
2023-03-05T05:42:28.103Z,100034.41
2023-03-05T05:45:04.833Z,100031.84
2023-03-05T05:47:33.964Z,100038.59
2023-03-05T05:50:03.884Z,100035.22
2023-03-05T05:52:33.663Z,100045.38
2023-03-05T05:55:01.426Z,100042.84
2023-03-05T05:57:36.662Z,100011.66
2023-03-05T06:00:07.376Z,100035.25
2023-03-05T06:02:40.882Z,100038.63
2023-03-05T06:05:10.827Z,100036.09
2023-03-05T06:07:40.750Z,100036.94
2023-03-05T06:10:13.561Z,100020.06
2023-03-05T06:12:44.285Z,100038.59
2023-03-05T06:15:12.295Z,100012.44
2023-03-05T06:17:48.618Z,99998.16
2023-03-05T06:20:19.329Z,100018.41
2023-03-05T06:22:49.270Z,100007.47
2023-03-05T06:25:18.926Z,100037.78
2023-03-05T06:27:48.790Z,100036.09
2023-03-05T06:30:16.786Z,100008.31
2023-03-05T06:32:47.874Z,100026.84
2023-03-05T06:35:19.019Z,100017.53
2023-03-05T06:37:47.031Z,99997.34
2023-03-05T06:40:17.655Z,100031.03
2023-03-05T06:42:47.596Z,100020.91
2023-03-05T06:45:15.848Z,99998.16
2023-03-05T06:47:46.850Z,100020.88
2023-03-05T06:50:14.979Z,100015.75
2023-03-05T06:52:43.492Z,100019.91
2023-03-05T06:55:11.608Z,100024.16
2023-03-05T06:57:39.428Z,100014.72
2023-03-05T07:00:10.136Z,99987.03
2023-03-05T07:02:40.227Z,100014.69
2023-03-05T07:05:10.100Z,99989.47
2023-03-05T07:07:38.212Z,100007.09
2023-03-05T07:10:09.849Z,100010.38
2023-03-05T07:12:39.774Z,99980.91
2023-03-05T07:15:15.326Z,100007.84
2023-03-05T07:17:43.117Z,100006.91
2023-03-05T07:20:14.895Z,100001.78
2023-03-05T07:22:44.618Z,99997.47
2023-03-05T07:25:12.565Z,99954.34
2023-03-05T07:27:45.069Z,99964.41
2023-03-05T07:30:15.913Z,99996.19
2023-03-05T07:32:48.075Z,99984.38
2023-03-05T07:35:19.210Z,99991.78
2023-03-05T07:37:49.160Z,99953.59
2023-03-05T07:40:17.279Z,99979.38
2023-03-05T07:42:46.866Z,99940.78
2023-03-05T07:45:14.947Z,99980.28
2023-03-05T07:47:42.667Z,99970.94
2023-03-05T07:50:14.939Z,99987.06
2023-03-05T07:52:45.838Z,99980.06
2023-03-05T07:55:13.846Z,99938.94
2023-03-05T07:57:43.724Z,99984.44
2023-03-05T08:00:12.822Z,99967.91
2023-03-05T08:02:40.636Z,99980.47
2023-03-05T08:05:09.203Z,99987.28
2023-03-05T08:07:38.850Z,99987.81
2023-03-05T08:10:09.955Z,99971.28
2023-03-05T08:12:37.868Z,99963.66
2023-03-05T08:15:06.562Z,99929.75
2023-03-05T08:17:34.412Z,99954.25
2023-03-05T08:20:05.500Z,99946.91
2023-03-05T08:22:35.203Z,99938.41
2023-03-05T08:25:04.083Z,99952.72
2023-03-05T08:27:33.844Z,99952.81
2023-03-05T08:30:03.214Z,99958.84
2023-03-05T08:32:30.975Z,99951.19
2023-03-05T08:34:59.181Z,99941.81
2023-03-05T08:37:28.815Z,99879.09
2023-03-05T08:39:56.880Z,99894.94
2023-03-05T08:42:26.773Z,99931.16
2023-03-05T08:44:57.713Z,99933.78
2023-03-05T08:47:26.918Z,99890.94
2023-03-05T08:49:57.626Z,99925.41
2023-03-05T08:52:29.138Z,99902.25
2023-03-05T08:54:57.057Z,99907.06
2023-03-05T08:57:24.865Z,99936.47
2023-03-05T08:59:54.715Z,99931.34
2023-03-05T09:02:25.624Z,99945.41
2023-03-05T09:04:53.386Z,99947.34
2023-03-05T09:07:21.200Z,99949.81
2023-03-05T09:09:51.132Z,99942.78
2023-03-05T09:12:18.863Z,99942.31
2023-03-05T09:14:48.733Z,99935.09
2023-03-05T09:17:16.762Z,99913.41
2023-03-05T09:19:45.876Z,99942.81
2023-03-05T09:22:15.782Z,99927.22
2023-03-05T09:24:45.607Z,99923.84
2023-03-05T09:27:14.902Z,99919.72
2023-03-05T09:29:44.889Z,99918.41
2023-03-05T09:32:14.939Z,99922.22
2023-03-05T09:34:42.840Z,99919.63
2023-03-05T09:37:13.862Z,99913.28
2023-03-05T09:39:43.736Z,99885.91
2023-03-05T09:42:31.464Z,99902.16
2023-03-05T09:45:10.679Z,99903.97
2023-03-05T09:47:55.591Z,99880.81
2023-03-05T09:50:45.568Z,99892.03
2023-03-05T09:53:22.352Z,99895.06
2023-03-05T09:55:54.845Z,99894.31
2023-03-05T09:58:32.313Z,99890.31
2023-03-05T10:01:03.604Z,99903.94
2023-03-05T10:03:47.407Z,99897.63
2023-03-05T10:06:24.008Z,99891.78
2023-03-05T10:08:59.754Z,99868.06
2023-03-05T10:11:46.395Z,99884.34
2023-03-05T10:14:17.516Z,99888.75
2023-03-05T10:17:04.031Z,99881.66
2023-03-05T10:20:07.152Z,99891.72
2023-03-05T10:22:43.168Z,99887.63
2023-03-05T10:25:26.695Z,99881.06
2023-03-05T10:28:00.129Z,99885.78
2023-03-05T10:30:54.560Z,99884.88
2023-03-05T10:33:33.596Z,99890.13
2023-03-05T10:36:32.104Z,99885.25
2023-03-05T10:39:32.841Z,99869.66
2023-03-05T10:42:12.521Z,99875.97
2023-03-05T10:44:45.905Z,99877.25
2023-03-05T10:47:19.140Z,99867.47
2023-03-05T10:49:52.073Z,99860.91
2023-03-05T10:52:25.625Z,99820.88
2023-03-05T10:54:55.480Z,99866.41
2023-03-05T10:57:26.478Z,99825.91
2023-03-05T10:59:56.549Z,99864.66
2023-03-05T11:02:26.410Z,99837.72
2023-03-05T11:04:55.232Z,99860.97
2023-03-05T11:07:39.268Z,99859.34
2023-03-05T11:10:19.391Z,99852.72
2023-03-05T11:12:50.708Z,99851.09
2023-03-05T11:15:28.577Z,99838.28
2023-03-05T11:18:21.185Z,99858.09
2023-03-05T11:20:49.547Z,99850.31
2023-03-05T11:23:20.639Z,99853.97
2023-03-05T11:26:18.314Z,99845.19
2023-03-05T11:28:59.523Z,99853.06
2023-03-05T11:31:31.176Z,99836.28
2023-03-05T11:34:02.058Z,99844.56
2023-03-05T11:36:33.561Z,99837.66
2023-03-05T11:39:11.676Z,99837.22
2023-03-05T11:41:44.306Z,99835.41
2023-03-05T11:44:18.642Z,99810.66
2023-03-05T11:46:49.483Z,99818.97
2023-03-05T11:49:22.414Z,99847.16
2023-03-05T11:51:59.893Z,99847.13
2023-03-05T11:54:34.652Z,99852.34
2023-03-05T11:57:04.830Z,99842.78
2023-03-05T11:59:39.650Z,99830.22
2023-03-05T12:02:19.633Z,99827.94
2023-03-05T12:04:49.465Z,99838.91
2023-03-05T12:07:22.244Z,99854.06
2023-03-05T12:09:52.060Z,99856.72
2023-03-05T12:12:36.099Z,99855.19
2023-03-05T12:15:26.812Z,99856.06
2023-03-05T12:18:06.808Z,99843.38
2023-03-05T12:20:43.358Z,99852.84
2023-03-05T12:23:15.919Z,99813.81
2023-03-05T12:25:48.608Z,99835.22
2023-03-05T12:28:18.291Z,99850.22
2023-03-05T12:30:58.920Z,99852.63
2023-03-05T12:33:40.169Z,99857.97
2023-03-05T12:36:33.615Z,99850.13
2023-03-05T12:39:03.550Z,99857.13
2023-03-05T12:41:37.140Z,99853.84
2023-03-05T12:44:19.257Z,99858.53
2023-03-05T12:47:18.380Z,99866.41
2023-03-05T12:49:48.451Z,99869.09
2023-03-05T12:52:24.530Z,99861.75
2023-03-05T12:55:18.220Z,99858.09
2023-03-05T12:57:50.900Z,99864.19
2023-03-05T13:00:23.671Z,99851.66
2023-03-05T13:02:59.536Z,99848.44
2023-03-05T13:05:32.730Z,99855.16
2023-03-05T13:08:22.292Z,99827.38
2023-03-05T13:10:57.041Z,99856.44
2023-03-05T13:13:29.606Z,99855.94
2023-03-05T13:16:00.167Z,99816.53
2023-03-05T13:18:32.634Z,99859.66
2023-03-05T13:21:06.340Z,99854.28
2023-03-05T13:23:36.674Z,99827.72
2023-03-05T13:26:14.754Z,99845.78
2023-03-05T13:28:45.014Z,99852.59
2023-03-05T13:31:18.766Z,99852.88
2023-03-05T13:33:56.801Z,99825.41
2023-03-05T13:36:27.203Z,99846.34
2023-03-05T13:38:55.811Z,99858.66
2023-03-05T13:41:25.683Z,99863.13
2023-03-05T13:43:58.235Z,99852.00
2023-03-05T13:46:30.350Z,99864.28
2023-03-05T13:49:20.347Z,99859.69
2023-03-05T13:51:53.296Z,99847.59
2023-03-05T13:54:23.061Z,99846.75
2023-03-05T13:56:56.547Z,99833.41
2023-03-05T13:59:27.588Z,99846.59
2023-03-05T14:01:59.149Z,99846.66
2023-03-05T14:04:34.041Z,99846.00
2023-03-05T14:07:06.070Z,99793.16
2023-03-05T14:09:49.242Z,99838.59
2023-03-05T14:12:27.506Z,99841.56
2023-03-05T14:14:59.393Z,99846.16
2023-03-05T14:17:40.687Z,99846.41
2023-03-05T14:20:24.197Z,99822.50
2023-03-05T14:22:53.958Z,99840.84
2023-03-05T14:25:37.714Z,99817.16
2023-03-05T14:28:07.125Z,99825.69
2023-03-05T14:30:37.852Z,99840.56
2023-03-05T14:33:07.990Z,99842.13
2023-03-05T14:35:38.030Z,99851.31
2023-03-05T14:38:08.328Z,99850.16
2023-03-05T14:40:38.008Z,99851.84
2023-03-05T14:43:07.109Z,99846.84
2023-03-05T14:45:37.401Z,99794.69
2023-03-05T14:48:07.405Z,99843.13
2023-03-05T14:50:39.351Z,99830.44
2023-03-05T14:53:10.724Z,99835.91
2023-03-05T14:55:39.286Z,99830.09
2023-03-05T14:58:13.571Z,99792.97
2023-03-05T15:00:42.043Z,99834.50
2023-03-05T15:03:11.782Z,99828.84
2023-03-05T15:05:43.806Z,99798.47
2023-03-05T15:08:15.761Z,99835.44
2023-03-05T15:10:45.765Z,99832.19
2023-03-05T15:13:15.788Z,99827.69
2023-03-05T15:15:45.086Z,99832.97
2023-03-05T15:18:15.012Z,99817.72
2023-03-05T15:20:46.011Z,99823.59
2023-03-05T15:23:15.588Z,99816.91
2023-03-05T15:25:44.030Z,99818.38
2023-03-05T15:28:12.272Z,99820.81
2023-03-05T15:30:43.026Z,99803.88
2023-03-05T15:33:17.272Z,99818.09
2023-03-05T15:35:46.645Z,99821.13
2023-03-05T15:38:15.309Z,99818.66
2023-03-05T15:40:44.269Z,99814.16
2023-03-05T15:43:12.249Z,99812.22
2023-03-05T15:45:42.299Z,99811.59
2023-03-05T15:48:12.404Z,99804.16
2023-03-05T15:50:43.065Z,99810.72
2023-03-05T15:53:17.561Z,99809.91
2023-03-05T15:55:46.073Z,99810.63
2023-03-05T15:58:17.802Z,99820.84
2023-03-05T16:00:47.626Z,99817.03
2023-03-05T16:03:15.796Z,99778.63
2023-03-05T16:05:45.812Z,99814.72
2023-03-05T16:08:16.863Z,99817.44
2023-03-05T16:10:44.714Z,99766.25
2023-03-05T16:13:21.738Z,99814.28
2023-03-05T16:15:53.067Z,99827.13
2023-03-05T16:18:21.504Z,99825.50
2023-03-05T16:20:49.601Z,99826.53
2023-03-05T16:23:19.047Z,99828.28
2023-03-05T16:25:47.242Z,99831.75
2023-03-05T16:28:15.174Z,99836.84
2023-03-05T16:30:42.951Z,99835.13
2023-03-05T16:33:13.221Z,99785.56
2023-03-05T16:35:41.090Z,99832.63
2023-03-05T16:38:09.091Z,99837.09
2023-03-05T16:41:06.253Z,99839.13
2023-03-05T16:43:28.651Z,99836.63
2023-03-05T16:46:00.575Z,99809.09
2023-03-05T16:48:30.667Z,99845.44
2023-03-05T16:51:04.494Z,99842.22
2023-03-05T16:53:32.790Z,99818.97
2023-03-05T16:56:05.221Z,99802.19
2023-03-05T16:58:34.376Z,99849.28
2023-03-05T17:01:02.912Z,99848.47
2023-03-05T17:03:34.928Z,99839.28
2023-03-05T17:06:02.754Z,99822.44
2023-03-05T17:08:30.511Z,99855.19
2023-03-05T17:10:58.305Z,99857.84
2023-03-05T17:13:29.335Z,99861.50
2023-03-05T17:15:57.682Z,99837.91
2023-03-05T17:18:27.532Z,99867.41
2023-03-05T17:20:57.442Z,99860.53
2023-03-05T17:23:25.827Z,99865.59
2023-03-05T17:25:55.658Z,99860.53
2023-03-05T17:28:25.182Z,99816.09
2023-03-05T17:30:55.352Z,99874.97
2023-03-05T17:33:56.060Z,99879.19
2023-03-05T17:36:24.888Z,99840.66
2023-03-05T17:38:52.771Z,99830.53
2023-03-05T17:41:25.008Z,99869.16
2023-03-05T17:43:52.822Z,99880.97
2023-03-05T17:46:24.877Z,99878.34
2023-03-05T17:48:56.798Z,99878.50
2023-03-05T17:51:28.786Z,99883.59
2023-03-05T17:53:58.763Z,99889.56
2023-03-05T17:56:26.827Z,99887.00
2023-03-05T17:58:56.923Z,99885.28
2023-03-05T18:01:31.258Z,99886.97
2023-03-05T18:04:01.513Z,99860.94
2023-03-05T18:06:30.467Z,99850.78
2023-03-05T18:09:00.188Z,99876.84
2023-03-05T18:11:30.206Z,99818.81
2023-03-05T18:13:58.259Z,99881.09
2023-03-05T18:16:34.048Z,99839.94
2023-03-05T18:19:01.875Z,99877.63
2023-03-05T18:21:32.035Z,99874.25
2023-03-05T18:24:01.680Z,99873.47
2023-03-05T18:26:29.363Z,99870.94
2023-03-05T18:28:59.353Z,99875.09
2023-03-05T18:31:28.668Z,99876.81
2023-03-05T18:33:56.527Z,99870.09
2023-03-05T18:36:24.441Z,99872.63
2023-03-05T18:38:52.446Z,99877.78
2023-03-05T18:41:22.590Z,99875.22
2023-03-05T18:43:50.699Z,99831.53
2023-03-05T18:46:20.955Z,99869.31
2023-03-05T18:48:50.182Z,99829.03
2023-03-05T18:51:21.629Z,99876.88
2023-03-05T18:53:50.440Z,99872.63
2023-03-05T18:56:18.203Z,99831.56
2023-03-05T18:58:48.421Z,99868.50
2023-03-05T19:01:17.677Z,99866.91
2023-03-05T19:03:45.839Z,99863.53
2023-03-05T19:06:17.743Z,99868.59
2023-03-05T19:08:48.352Z,99872.00
2023-03-05T19:11:17.944Z,99872.03
2023-03-05T19:13:49.052Z,99872.03
2023-03-05T19:16:22.582Z,99877.31
2023-03-05T19:18:59.799Z,99873.00
2023-03-05T19:21:32.980Z,99877.22
2023-03-05T19:24:00.805Z,99870.38
2023-03-05T19:26:28.608Z,99867.00
2023-03-05T19:29:00.534Z,99870.41
2023-03-05T19:31:28.235Z,99873.81
2023-03-05T19:33:56.308Z,99857.72
2023-03-05T19:37:34.758Z,99858.56
2023-03-05T19:40:04.420Z,99864.53
2023-03-05T19:42:35.946Z,99852.81
2023-03-05T19:45:03.889Z,99851.06
2023-03-05T19:47:31.677Z,99856.94
2023-03-05T19:50:01.367Z,99861.03
2023-03-05T19:52:29.168Z,99842.50
2023-03-05T19:54:57.061Z,99858.56
2023-03-05T19:57:28.441Z,99861.91
2023-03-05T19:59:56.167Z,99856.81
2023-03-05T20:02:24.014Z,99808.97
2023-03-05T20:04:52.197Z,99852.56
2023-03-05T20:07:19.994Z,99852.63
2023-03-05T20:09:48.898Z,99842.44
2023-03-05T20:12:16.917Z,99837.47
2023-03-05T20:14:46.011Z,99853.44
2023-03-05T20:17:13.832Z,99841.56
2023-03-05T20:19:43.946Z,99853.50
2023-03-05T20:22:11.770Z,99785.38
2023-03-05T20:24:39.508Z,99806.28
2023-03-05T20:27:09.512Z,99846.78
2023-03-05T20:29:39.490Z,99844.22
2023-03-05T20:32:08.613Z,99839.25
2023-03-05T20:34:38.261Z,99822.47
2023-03-05T20:37:08.604Z,99841.97
2023-03-05T20:39:36.174Z,99846.09
2023-03-05T20:42:05.770Z,99843.50
2023-03-05T20:44:35.714Z,99845.19
2023-03-05T20:47:17.977Z,99800.66
2023-03-05T20:50:11.371Z,99842.66
2023-03-05T20:52:39.580Z,99830.91
2023-03-05T20:55:08.267Z,99838.50
2023-03-05T20:57:36.092Z,99796.53
2023-03-05T21:00:06.756Z,99767.88
2023-03-05T21:02:36.739Z,99841.09
2023-03-05T21:05:06.599Z,99837.75
2023-03-05T21:07:36.701Z,99834.34
2023-03-05T21:10:05.376Z,99839.63
2023-03-05T21:12:33.692Z,99827.78
2023-03-05T21:15:05.574Z,99829.59
2023-03-05T21:17:33.465Z,99836.19
2023-03-05T21:20:01.974Z,99832.06
2023-03-05T21:22:31.287Z,99830.41
2023-03-05T21:25:04.533Z,99832.06
2023-03-05T21:27:32.531Z,99822.81
2023-03-05T21:30:00.423Z,99827.13
2023-03-05T21:32:28.192Z,99824.66
2023-03-05T21:35:00.514Z,99827.16
2023-03-05T21:37:28.404Z,99789.31
2023-03-05T21:39:57.464Z,99767.44
2023-03-05T21:42:25.359Z,99775.03
2023-03-05T21:44:53.127Z,99824.66
2023-03-05T21:47:20.901Z,99812.91
2023-03-05T21:49:54.328Z,99814.56
2023-03-05T21:52:22.420Z,99816.25
2023-03-05T21:54:50.165Z,99788.47
2023-03-05T21:57:19.464Z,99819.59
2023-03-05T21:59:47.429Z,99748.06
2023-03-05T22:02:16.835Z,99812.91
2023-03-05T22:04:49.561Z,99772.50
2023-03-05T22:07:19.112Z,99793.53
2023-03-05T22:09:54.451Z,99804.41
2023-03-05T22:12:33.420Z,99749.75
2023-03-05T22:15:01.610Z,99801.13
2023-03-05T22:17:29.394Z,99795.16
2023-03-05T22:19:57.450Z,99808.66
2023-03-05T22:22:29.353Z,99807.81
2023-03-05T22:24:57.051Z,99803.56
2023-03-05T22:27:26.095Z,99801.88
2023-03-05T22:29:56.146Z,99802.78
2023-03-05T22:32:23.944Z,99792.66
2023-03-05T22:34:55.897Z,99801.94
2023-03-05T22:37:25.692Z,99800.25
2023-03-05T22:39:55.696Z,99794.31
2023-03-05T22:42:23.849Z,99727.13
2023-03-05T22:44:59.191Z,99755.72
2023-03-05T22:47:28.688Z,99788.50
2023-03-05T22:49:58.672Z,99793.56
2023-03-05T22:52:28.414Z,99800.34
2023-03-05T22:54:56.175Z,99753.25
2023-03-05T22:57:26.271Z,99730.53
2023-03-05T22:59:57.233Z,99794.41
2023-03-05T23:02:24.960Z,99791.88
2023-03-05T23:04:57.635Z,99797.81
2023-03-05T23:07:30.200Z,99786.88
2023-03-05T23:10:01.905Z,99789.41
2023-03-05T23:12:34.337Z,99755.75
2023-03-05T23:15:08.079Z,99791.09
2023-03-05T23:17:37.906Z,99788.59
2023-03-05T23:20:11.569Z,99781.00
2023-03-05T23:22:40.818Z,99788.56
2023-03-05T23:25:12.443Z,99785.19
2023-03-05T23:27:40.174Z,99780.94
2023-03-05T23:30:18.378Z,99784.34
2023-03-05T23:32:51.286Z,99783.47
2023-03-05T23:35:24.059Z,99743.94
2023-03-05T23:37:55.110Z,99784.28
2023-03-05T23:40:27.522Z,99779.25
2023-03-05T23:42:57.545Z,99751.50
2023-03-05T23:45:27.438Z,99770.84
2023-03-05T23:47:57.107Z,99774.16
2023-03-05T23:50:30.321Z,99774.22
2023-03-05T23:53:01.968Z,99733.88
2023-03-05T23:55:35.525Z,99773.41
2023-03-05T23:58:05.893Z,99766.72
